Time;durP1;ratioP1;P1;durP2;ratioP2;P2;SDS_P1;SDS_P2;PMS_P1;PMS_P2;Temp;Humidity;BMP_temperature;BMP_pressure;BME280_temperature;BME280_humidity;BME280_pressure;Samples;Min_cycle;Max_cycle;Signal;HPM_P1;HPM_P2
2022/10/23 00:01:35;;;;;;;17.23;7.00;;;;;;;11.22;100.00;101631.44;5032765;28;20689;-70
2022/10/23 00:04:22;;;;;;;10.73;6.80;;;;;;;11.42;100.00;101693.53;5033263;28;21118;-73
2022/10/23 00:06:47;;;;;;;11.80;6.03;;;;;;;10.89;100.00;101584.50;5047729;28;20529;-70
2022/10/23 00:09:16;;;;;;;17.53;7.10;;;;;;;10.72;100.00;101547.06;5035946;28;20437;-71
2022/10/23 00:11:43;;;;;;;16.20;6.93;;;;;;;11.08;100.00;101611.66;5034813;28;20449;-70
2022/10/23 00:14:09;;;;;;;11.60;7.03;;;;;;;11.37;100.00;101649.44;5036887;28;20433;-70
2022/10/23 00:16:34;;;;;;;9.73;7.60;;;;;;;11.56;100.00;101686.50;5038447;28;20934;-71
2022/10/23 00:18:59;;;;;;;10.03;6.93;;;;;;;11.45;100.00;101674.34;5034120;28;20228;-71
2022/10/23 00:21:25;;;;;;;12.97;8.10;;;;;;;11.50;100.00;101695.31;5052458;28;20206;-70
2022/10/23 00:23:51;;;;;;;10.23;6.67;;;;;;;11.56;100.00;101699.13;5043018;28;20206;-71
2022/10/23 00:26:17;;;;;;;10.63;6.50;;;;;;;10.61;100.00;101559.06;5044338;28;20457;-70
2022/10/23 00:28:44;;;;;;;9.63;6.30;;;;;;;11.56;100.00;101691.88;5043989;28;20250;-71
2022/10/23 00:31:10;;;;;;;11.20;6.10;;;;;;;11.00;100.00;101609.03;5050944;28;20190;-71
2022/10/23 00:33:36;;;;;;;10.97;6.60;;;;;;;11.26;100.00;101667.69;5037243;28;20483;-71
2022/10/23 00:36:06;;;;;;;11.73;5.90;;;;;;;10.70;100.00;101589.34;5045593;28;20576;-70
2022/10/23 00:38:31;;;;;;;9.70;6.40;;;;;;;11.34;100.00;101680.22;5043970;28;20655;-71
2022/10/23 00:40:57;;;;;;;15.23;7.50;;;;;;;11.04;100.00;101626.44;5039862;28;20456;-71
2022/10/23 00:43:26;;;;;;;12.53;6.37;;;;;;;10.92;100.00;101625.22;5038748;28;20546;-70
2022/10/23 00:45:52;;;;;;;14.10;6.73;;;;;;;11.38;100.00;101684.19;5041379;28;20871;-70
2022/10/23 00:48:18;;;;;;;11.47;7.43;;;;;;;11.41;100.00;101694.56;5035285;28;20446;-71
2022/10/23 00:50:45;;;;;;;13.50;7.60;;;;;;;10.80;100.00;101614.09;5044678;28;20183;-70
2022/10/23 00:53:11;;;;;;;11.97;6.80;;;;;;;10.91;100.00;101636.97;5025822;28;20198;-70
2022/10/23 00:55:40;;;;;;;13.17;8.00;;;;;;;11.21;100.00;101688.03;5043133;28;20501;-69
2022/10/23 00:58:05;;;;;;;12.30;6.70;;;;;;;11.09;100.00;101677.75;5022811;28;20444;-70
2022/10/23 01:00:45;;;;;;;10.83;7.10;;;;;;;10.32;100.00;101534.84;5034643;28;20445;-71
2022/10/23 01:03:12;;;;;;;10.90;6.67;;;;;;;10.52;100.00;101581.63;5029738;28;20191;-70
2022/10/23 01:05:48;;;;;;;11.90;7.57;;;;;;;10.61;100.00;101585.06;5048416;28;20457;-71
2022/10/23 01:08:39;;;;;;;10.83;6.83;;;;;;;10.68;100.00;101617.38;5034978;28;20886;-70
2022/10/23 01:11:13;;;;;;;10.13;6.70;;;;;;;11.03;100.00;101665.03;5052425;28;20518;-70
2022/10/23 01:14:10;;;;;;;10.30;7.03;;;;;;;10.61;100.00;101601.16;5027946;28;20859;-70
2022/10/23 01:16:52;;;;;;;8.70;6.60;;;;;;;10.75;100.00;101626.38;5036482;28;20472;-70
2022/10/23 01:19:32;;;;;;;8.90;6.83;;;;;;;10.93;100.00;101664.44;5043989;28;20515;-70
2022/10/23 01:22:28;;;;;;;8.73;6.43;;;;;;;11.11;100.00;101679.41;5046940;28;20472;-70
2022/10/23 01:25:01;;;;;;;9.33;6.37;;;;;;;11.05;100.00;101687.19;5043384;28;21175;-70
2022/10/23 01:27:38;;;;;;;7.47;6.40;;;;;;;10.52;100.00;101597.72;5034332;28;20443;-70
2022/10/23 01:30:07;;;;;;;13.27;7.40;;;;;;;10.98;100.00;101688.91;5052828;28;20456;-70
2022/10/23 01:32:42;;;;;;;14.60;6.83;;;;;;;10.22;100.00;101586.00;5054030;28;20441;-70
2022/10/23 01:35:15;;;;;;;12.77;7.50;;;;;;;9.92;100.00;101534.94;5052944;28;20979;-70
2022/10/23 01:38:01;;;;;;;7.77;6.20;;;;;;;10.29;100.00;101605.75;5057948;28;20513;-71
2022/10/23 01:40:40;;;;;;;7.97;6.37;;;;;;;10.54;100.00;101657.38;5038817;28;20440;-70
2022/10/23 01:43:11;;;;;;;12.37;7.27;;;;;;;10.76;100.00;101693.28;5057376;28;20528;-71
2022/10/23 01:45:41;;;;;;;10.23;6.80;;;;;;;10.11;100.00;101586.41;5053875;28;20991;-71
2022/10/23 01:48:12;;;;;;;8.97;6.40;;;;;;;10.58;100.00;101668.59;5021020;28;20529;-70
2022/10/23 01:50:40;;;;;;;6.77;6.03;;;;;;;10.15;100.00;101611.84;5042786;28;20644;-70
2022/10/23 01:53:07;;;;;;;10.80;6.50;;;;;;;10.60;100.00;101686.19;5043106;28;20487;-70
2022/10/23 01:55:33;;;;;;;7.73;5.40;;;;;;;10.66;100.00;101699.91;5046245;28;20472;-70
2022/10/23 01:58:01;;;;;;;8.97;5.70;;;;;;;9.83;100.00;101564.63;5047178;28;21244;-70
2022/10/23 02:00:26;;;;;;;7.70;5.47;;;;;;;10.33;100.00;101633.06;5035002;28;20441;-71
2022/10/23 02:02:54;;;;;;;9.10;6.23;;;;;;;8.43;100.00;101323.56;5049177;22;20520;-74
2022/10/23 02:05:21;;;;;;;8.97;6.50;;;;;;;10.55;100.00;101687.72;5031558;28;20603;-74
2022/10/23 02:07:47;;;;;;;8.93;5.70;;;;;;;8.40;100.00;101361.34;5027840;28;20929;-74
2022/10/23 02:10:13;;;;;;;8.70;5.90;;;;;;;10.36;100.00;101714.00;5036090;28;20478;-73
2022/10/23 02:12:49;;;;;;;8.17;5.97;;;;;;;8.87;100.00;101450.63;5036384;28;20211;-74
2022/10/23 02:15:32;;;;;;;7.87;5.30;;;;;;;10.39;100.00;101659.19;5042837;28;20847;-74
2022/10/23 02:18:25;;;;;;;6.63;5.17;;;;;;;10.25;100.00;101657.22;5033995;28;20473;-74
2022/10/23 02:20:58;;;;;;;5.90;5.30;;;;;;;8.30;100.00;101328.59;5018668;28;20529;-74
2022/10/23 02:23:29;;;;;;;5.60;4.93;;;;;;;8.94;100.00;101446.22;5039446;28;20465;-74
2022/10/23 02:26:01;;;;;;;5.80;5.30;;;;;;;8.89;100.00;101448.63;5025162;28;20524;-74
2022/10/23 02:28:37;;;;;;;5.80;5.30;;;;;;;8.43;100.00;101389.59;5040565;28;20862;-74
2022/10/23 02:31:04;;;;;;;5.80;5.17;;;;;;;8.89;100.00;101456.63;5039619;28;20445;-73
2022/10/23 02:33:31;;;;;;;5.30;4.90;;;;;;;8.50;100.00;101396.72;5035337;28;20480;-74
2022/10/23 02:35:57;;;;;;;5.10;4.20;;;;;;;9.67;100.00;101578.97;5041144;28;20469;-74
2022/10/23 02:38:28;;;;;;;4.70;4.23;;;;;;;10.14;100.00;101635.13;5038660;28;20450;-74
2022/10/23 02:41:00;;;;;;;4.50;4.10;;;;;;;10.08;100.00;101638.53;5027146;28;20192;-74
2022/10/23 02:43:37;;;;;;;5.60;4.07;;;;;;;9.34;100.00;101538.09;5034190;28;21613;-74
2022/10/23 02:46:16;;;;;;;4.50;4.10;;;;;;;8.11;100.00;101329.81;5030958;28;20437;-74
2022/10/23 02:48:52;;;;;;;3.87;3.50;;;;;;;7.98;100.00;101284.94;5028981;28;20802;-74
2022/10/23 02:51:25;;;;;;;4.67;4.10;;;;;;;8.09;100.00;101321.13;5032614;28;20559;-74
2022/10/23 02:54:06;;;;;;;6.03;3.63;;;;;;;10.12;100.00;101636.31;5028372;28;20445;-74
2022/10/23 02:56:50;;;;;;;4.07;3.47;;;;;;;10.15;100.00;101634.16;5032200;28;20481;-74
2022/10/23 02:59:23;;;;;;;6.43;3.67;;;;;;;8.78;100.00;101431.09;5032527;28;20445;-74
2022/10/23 03:02:02;;;;;;;4.40;4.00;;;;;;;8.51;100.00;101419.81;5028927;28;20540;-74
2022/10/23 03:04:30;;;;;;;4.07;3.77;;;;;;;9.91;100.00;101672.63;5033682;28;20440;-74
2022/10/23 03:06:56;;;;;;;3.90;3.60;;;;;;;8.84;100.00;101475.88;5035275;28;20450;-74
2022/10/23 03:09:22;;;;;;;4.30;3.90;;;;;;;8.15;100.00;101384.59;5039014;28;20514;-74
2022/10/23 03:11:47;;;;;;;7.47;4.17;;;;;;;9.97;100.00;101665.72;5033577;28;20216;-74
2022/10/23 03:14:13;;;;;;;4.30;3.90;;;;;;;7.81;100.00;101288.63;5029209;28;20195;-74
2022/10/23 03:16:38;;;;;;;4.50;4.10;;;;;;;7.89;100.00;101321.50;5042017;28;20848;-74
2022/10/23 03:19:04;;;;;;;4.00;3.70;;;;;;;9.25;100.00;101543.47;5032694;28;20274;-74
2022/10/23 03:21:29;;;;;;;4.80;4.37;;;;;;;7.96;100.00;101308.31;5033771;28;20610;-74
2022/10/23 03:23:55;;;;;;;4.50;4.10;;;;;;;8.22;100.00;101366.88;5031964;28;20218;-74
2022/10/23 03:26:20;;;;;;;4.20;3.80;;;;;;;8.19;100.00;101334.31;5033703;28;20282;-74
2022/10/23 03:28:46;;;;;;;4.30;3.90;;;;;;;8.12;100.00;101273.53;5030534;28;20874;-74
2022/10/23 03:31:11;;;;;;;8.10;4.60;;;;;;;9.25;100.00;101452.44;5031700;28;20821;-73
2022/10/23 03:33:36;;;;;;;5.13;4.50;;;;;;;9.41;100.00;101498.91;5040387;28;20222;-73
2022/10/23 03:36:02;;;;;;;7.03;4.33;;;;;;;9.21;100.00;101455.66;5042189;28;20219;-74
2022/10/23 03:38:27;;;;;;;6.67;5.80;;;;;;;10.05;100.00;101582.59;5028570;28;20249;-73
2022/10/23 03:40:53;;;;;;;5.60;5.10;;;;;;;9.57;100.00;101504.16;5027986;28;20188;-73
2022/10/23 03:43:18;;;;;;;5.20;4.30;;;;;;;10.08;100.00;101586.78;5036694;28;20317;-73
2022/10/23 03:45:44;;;;;;;6.27;4.47;;;;;;;9.94;100.00;101554.34;5034668;28;20187;-73
2022/10/23 03:48:09;;;;;;;7.00;4.80;;;;;;;9.77;100.00;101533.19;5031705;28;20244;-73
2022/10/23 03:50:35;;;;;;;6.60;4.43;;;;;;;9.99;100.00;101567.22;5030516;28;20195;-73
2022/10/23 03:53:00;;;;;;;5.40;4.90;;;;;;;9.48;100.00;101468.56;5030457;28;20235;-73
2022/10/23 03:55:26;;;;;;;5.10;4.50;;;;;;;10.22;100.00;101579.81;5029121;28;20610;-73
2022/10/23 03:57:53;;;;;;;5.30;4.80;;;;;;;10.23;100.00;101568.91;5027263;28;20199;-73
2022/10/23 04:00:18;;;;;;;5.50;4.43;;;;;;;9.56;100.00;101483.75;5030535;28;20950;-74
2022/10/23 04:02:44;;;;;;;5.50;4.13;;;;;;;9.95;100.00;101529.25;5030094;28;20485;-73
2022/10/23 04:05:09;;;;;;;6.10;4.80;;;;;;;9.36;100.00;101435.16;5043884;28;20187;-73
2022/10/23 04:07:35;;;;;;;5.67;5.07;;;;;;;10.13;100.00;101563.78;5032997;28;20194;-73
2022/10/23 04:10:01;;;;;;;4.00;3.60;;;;;;;10.22;100.00;101555.69;5028666;28;20278;-73
2022/10/23 04:12:26;;;;;;;4.80;4.30;;;;;;;9.74;100.00;101497.69;5038409;28;20861;-73
2022/10/23 04:14:51;;;;;;;5.23;4.47;;;;;;;10.25;100.00;101574.09;5036826;28;20207;-73
2022/10/23 04:17:17;;;;;;;6.80;3.80;;;;;;;9.78;100.00;101510.75;5041072;28;20248;-73
2022/10/23 04:19:42;;;;;;;6.13;4.63;;;;;;;9.96;100.00;101546.97;5049570;28;20203;-73
2022/10/23 04:22:08;;;;;;;4.43;4.03;;;;;;;10.11;100.00;101543.53;5045922;28;20661;-73
2022/10/23 04:24:33;;;;;;;4.60;4.17;;;;;;;9.90;100.00;101523.56;5050567;28;20193;-73
2022/10/23 04:26:58;;;;;;;6.50;4.20;;;;;;;9.48;100.00;101451.66;5046826;28;20187;-73
2022/10/23 04:29:24;;;;;;;5.40;3.57;;;;;;;9.36;100.00;101455.75;5045846;28;20188;-74
2022/10/23 04:31:50;;;;;;;5.20;3.83;;;;;;;10.02;100.00;101572.22;5049085;28;20211;-73
2022/10/23 04:34:16;;;;;;;5.07;4.40;;;;;;;9.96;100.00;101546.16;5049444;28;20195;-73
2022/10/23 04:36:42;;;;;;;5.20;4.50;;;;;;;9.78;100.00;101529.50;5047095;28;20531;-73
2022/10/23 04:39:08;;;;;;;5.47;3.83;;;;;;;9.99;100.00;101553.00;5045425;28;20937;-73
2022/10/23 04:41:33;;;;;;;4.30;3.40;;;;;;;8.92;100.00;101398.25;5047832;28;20631;-73
2022/10/23 04:43:59;;;;;;;3.40;3.07;;;;;;;10.06;100.00;101560.13;5046014;28;20183;-73
2022/10/23 04:46:24;;;;;;;4.70;3.60;;;;;;;9.53;100.00;101492.16;5043010;28;20214;-73
2022/10/23 04:48:49;;;;;;;4.50;3.80;;;;;;;9.98;100.00;101548.63;5047408;28;20188;-73
2022/10/23 04:51:15;;;;;;;3.63;3.23;;;;;;;9.78;100.00;101534.84;5044093;28;20657;-73
2022/10/23 04:53:40;;;;;;;4.63;3.60;;;;;;;9.56;100.00;101472.22;5049816;28;20576;-73
2022/10/23 04:56:06;;;;;;;4.63;3.67;;;;;;;9.33;100.00;101448.06;5045252;28;20290;-73
2022/10/23 04:58:31;;;;;;;4.23;3.73;;;;;;;9.78;100.00;101534.84;5047622;28;20670;-74
2022/10/23 05:00:57;;;;;;;4.23;3.83;;;;;;;9.78;100.00;101532.16;5050025;28;20191;-73
2022/10/23 05:03:24;;;;;;;4.10;3.57;;;;;;;9.67;100.00;101542.28;5048430;28;20553;-73
2022/10/23 05:05:54;;;;;;;4.57;3.83;;;;;;;9.70;100.00;101536.59;5041337;28;20437;-73
2022/10/23 05:08:20;;;;;;;4.10;3.70;;;;;;;9.73;100.00;101530.88;5044146;28;20449;-73
2022/10/23 05:10:47;;;;;;;4.40;4.00;;;;;;;9.43;100.00;101470.09;5044051;28;20458;-73
2022/10/23 05:13:12;;;;;;;6.03;4.70;;;;;;;9.78;100.00;101513.41;5045370;28;20469;-73
2022/10/23 05:15:38;;;;;;;4.30;3.90;;;;;;;9.37;100.00;101430.63;5044021;28;20560;-73
2022/10/23 05:18:20;;;;;;;5.43;4.53;;;;;;;9.82;100.00;101518.25;5029310;28;20754;-73
2022/10/23 05:20:49;;;;;;;4.37;3.97;;;;;;;9.57;100.00;101493.44;5050817;28;20275;-73
2022/10/23 05:23:17;;;;;;;5.17;4.10;;;;;;;9.45;100.00;101470.75;5051768;28;20460;-73
2022/10/23 05:25:42;;;;;;;5.07;4.20;;;;;;;8.85;100.00;101372.38;5052878;28;20448;-73
2022/10/23 05:28:08;;;;;;;4.80;4.33;;;;;;;9.44;100.00;101463.75;5043799;28;20442;-73
2022/10/23 05:30:33;;;;;;;4.53;3.70;;;;;;;9.18;100.00;101426.56;5041150;28;20712;-73
2022/10/23 05:33:01;;;;;;;5.23;4.73;;;;;;;9.79;100.00;101517.78;5050903;28;20214;-73
2022/10/23 05:35:28;;;;;;;4.33;3.93;;;;;;;9.48;100.00;101478.44;5046815;28;20698;-74
2022/10/23 05:37:56;;;;;;;6.17;4.30;;;;;;;9.12;100.00;101414.72;5049339;28;20454;-74
2022/10/23 05:40:21;;;;;;;4.80;4.40;;;;;;;9.67;100.00;101504.78;5038555;28;20484;-74
2022/10/23 05:42:47;;;;;;;5.33;4.00;;;;;;;9.60;100.00;101479.69;5053795;28;20465;-74
2022/10/23 05:45:12;;;;;;;7.50;4.03;;;;;;;9.20;100.00;101433.44;5046021;28;20530;-74
2022/10/23 05:47:37;;;;;;;3.70;3.40;;;;;;;9.25;100.00;101443.59;5045489;28;20203;-74
2022/10/23 05:50:03;;;;;;;5.30;4.57;;;;;;;9.38;100.00;101453.75;5040961;28;20195;-74
2022/10/23 05:52:29;;;;;;;4.27;3.87;;;;;;;9.90;100.00;101509.34;5043840;28;20269;-74
2022/10/23 05:54:54;;;;;;;5.20;4.67;;;;;;;9.81;100.00;101511.25;5048337;28;20216;-74
2022/10/23 05:57:19;;;;;;;4.90;4.40;;;;;;;9.83;100.00;101495.78;5036692;28;20206;-74
2022/10/23 05:59:45;;;;;;;5.23;4.50;;;;;;;9.62;100.00;101458.13;5049150;28;20236;-74
2022/10/23 06:02:10;;;;;;;5.80;4.43;;;;;;;9.04;100.00;101375.44;5045964;28;20808;-74
2022/10/23 06:04:35;;;;;;;5.17;4.73;;;;;;;9.77;100.00;101491.16;5047402;28;20188;-74
2022/10/23 06:07:02;;;;;;;6.30;5.17;;;;;;;9.73;100.00;101487.19;5049414;28;20314;-74
2022/10/23 06:09:28;;;;;;;5.07;4.50;;;;;;;8.88;100.00;101369.34;5044939;28;20183;-74
2022/10/23 06:11:53;;;;;;;4.77;4.27;;;;;;;9.04;100.00;101391.50;5049319;28;20472;-74
2022/10/23 06:14:19;;;;;;;4.73;4.07;;;;;;;9.73;100.00;101492.53;5047545;28;20175;-74
2022/10/23 06:16:44;;;;;;;5.90;5.30;;;;;;;9.64;100.00;101488.25;5050465;28;20552;-73
2022/10/23 06:19:11;;;;;;;5.20;4.70;;;;;;;9.71;100.00;101492.69;5037346;28;20184;-74
2022/10/23 06:21:37;;;;;;;4.33;3.93;;;;;;;9.02;100.00;101403.38;5038121;28;20204;-74
2022/10/23 06:24:04;;;;;;;3.80;3.50;;;;;;;9.64;100.00;101488.25;5045239;28;20442;-74
2022/10/23 06:26:29;;;;;;;5.43;3.70;;;;;;;8.92;100.00;101382.22;5052223;28;20953;-74
2022/10/23 06:28:55;;;;;;;4.80;4.30;;;;;;;9.63;100.00;101489.22;5048747;28;20440;-74
2022/10/23 06:31:25;;;;;;;5.13;4.60;;;;;;;9.53;100.00;101456.50;5048958;28;20255;-74
2022/10/23 06:33:54;;;;;;;4.20;3.80;;;;;;;9.73;100.00;101477.28;5048955;28;20197;-74
2022/10/23 06:36:20;;;;;;;6.23;4.00;;;;;;;9.76;100.00;101467.25;5045419;28;20465;-74
2022/10/23 06:38:46;;;;;;;4.83;4.33;;;;;;;9.60;100.00;101436.03;5044606;28;20442;-74
2022/10/23 06:41:16;;;;;;;5.90;4.60;;;;;;;9.79;100.00;101477.59;5046063;28;20564;-74
2022/10/23 06:43:42;;;;;;;4.53;4.13;;;;;;;9.84;100.00;101473.38;5047365;28;20226;-74
2022/10/23 06:46:08;;;;;;;5.97;5.37;;;;;;;9.23;100.00;101382.22;5047345;28;20447;-74
2022/10/23 06:48:34;;;;;;;4.97;4.40;;;;;;;9.37;100.00;101374.41;5047135;28;20190;-74
2022/10/23 06:51:06;;;;;;;5.90;5.30;;;;;;;10.09;100.00;101457.09;5048686;28;20441;-74
2022/10/23 06:53:32;;;;;;;5.67;5.10;;;;;;;10.06;100.00;101465.50;5041664;28;20204;-74
2022/10/23 06:55:59;;;;;;;7.63;5.77;;;;;;;9.71;100.00;101396.25;5046354;28;20469;-74
2022/10/23 06:58:24;;;;;;;7.57;5.67;;;;;;;9.90;100.00;101419.06;5045092;28;20842;-74
2022/10/23 07:00:50;;;;;;;5.73;5.20;;;;;;;10.32;100.00;101465.13;5049019;28;20790;-74
2022/10/23 07:03:15;;;;;;;6.93;5.70;;;;;;;10.24;100.00;101465.16;5047823;28;20231;-74
2022/10/23 07:05:43;;;;;;;7.33;5.50;;;;;;;10.21;100.00;101442.22;5054018;28;20183;-74
2022/10/23 07:08:09;;;;;;;9.30;5.43;;;;;;;10.18;100.00;101443.44;5051064;28;20450;-74
2022/10/23 07:10:34;;;;;;;6.27;5.20;;;;;;;9.85;100.00;101413.41;5044991;28;20445;-74
2022/10/23 07:13:00;;;;;;;7.77;5.90;;;;;;;10.06;100.00;101444.06;5055120;28;20675;-74
2022/10/23 07:15:26;;;;;;;5.90;5.10;;;;;;;9.98;100.00;101428.03;5045078;28;20671;-74
2022/10/23 07:17:52;;;;;;;6.70;5.70;;;;;;;10.37;100.00;101489.56;5038213;28;20210;-73
2022/10/23 07:20:18;;;;;;;7.60;6.47;;;;;;;10.19;100.00;101463.88;5041821;28;20465;-73
2022/10/23 07:22:50;;;;;;;7.00;6.00;;;;;;;10.36;100.00;101483.38;5033663;28;20257;-73
2022/10/23 07:25:16;;;;;;;8.77;6.83;;;;;;;10.34;100.00;101480.03;5037175;28;20954;-74
2022/10/23 07:27:41;;;;;;;8.90;6.70;;;;;;;10.49;100.00;101487.28;5047384;28;20441;-73
2022/10/23 07:30:07;;;;;;;10.30;7.10;;;;;;;10.28;100.00;101470.03;5044535;28;20184;-74
2022/10/23 07:32:32;;;;;;;7.27;6.17;;;;;;;10.11;100.00;101460.44;5050589;28;20595;-74
2022/10/23 07:34:58;;;;;;;7.17;6.10;;;;;;;9.86;100.00;101374.88;5053360;28;20207;-74
2022/10/23 07:37:23;;;;;;;8.53;6.67;;;;;;;10.02;100.00;101411.41;5052381;28;20182;-74
2022/10/23 07:39:49;;;;;;;10.13;7.60;;;;;;;10.56;100.00;101502.47;5051213;28;20184;-74
2022/10/23 07:42:14;;;;;;;7.20;6.30;;;;;;;10.09;100.00;101423.06;5055510;28;20555;-74
2022/10/23 07:44:39;;;;;;;7.87;6.30;;;;;;;10.55;100.00;101503.47;5050542;28;20221;-74
2022/10/23 07:47:05;;;;;;;6.20;5.60;;;;;;;10.23;100.00;101434.84;5050144;28;20202;-73
2022/10/23 07:49:30;;;;;;;9.23;7.30;;;;;;;10.81;100.00;101494.97;5048225;28;20183;-74
2022/10/23 07:51:57;;;;;;;11.13;6.70;;;;;;;10.33;100.00;101430.09;5050859;28;20577;-74
2022/10/23 07:54:23;;;;;;;7.00;5.90;;;;;;;10.65;100.00;101446.06;5049616;28;20187;-74
2022/10/23 07:56:50;;;;;;;7.23;5.97;;;;;;;10.31;100.00;101404.47;5050318;28;20488;-75
2022/10/23 07:59:16;;;;;;;8.03;6.10;;;;;;;10.87;100.00;101490.72;5046156;28;20191;-75
2022/10/23 08:01:42;;;;;;;6.07;5.23;;;;;;;10.80;100.00;101482.59;5048441;28;20444;-74
2022/10/23 08:04:09;;;;;;;7.93;5.83;;;;;;;10.31;100.00;101366.94;5052614;28;20633;-74
2022/10/23 08:06:35;;;;;;;5.83;5.23;;;;;;;10.99;100.00;101478.53;5049342;28;20430;-75
2022/10/23 08:09:00;;;;;;;7.20;5.50;;;;;;;10.22;100.00;101362.66;5045555;28;20442;-74
2022/10/23 08:11:27;;;;;;;7.63;6.07;;;;;;;10.42;100.00;101405.88;5052771;28;20525;-74
2022/10/23 08:13:55;;;;;;;7.83;5.57;;;;;;;10.90;100.00;101458.16;5042340;28;20224;-74
2022/10/23 08:16:21;;;;;;;9.47;6.03;;;;;;;10.43;100.00;101370.81;5052030;28;20457;-75
2022/10/23 08:18:48;;;;;;;6.47;5.40;;;;;;;11.07;100.00;101478.41;5048350;28;20425;-75
2022/10/23 08:21:14;;;;;;;7.63;6.33;;;;;;;11.25;100.00;101474.50;5052675;28;20454;-75
2022/10/23 08:23:40;;;;;;;6.80;5.80;;;;;;;10.43;100.00;101357.41;5047611;28;20553;-74
2022/10/23 08:26:06;;;;;;;8.97;5.50;;;;;;;11.26;100.00;101478.88;5042176;28;20830;-73
2022/10/23 08:28:32;;;;;;;5.43;4.93;;;;;;;11.13;100.00;101441.94;5043867;28;20507;-74
2022/10/23 08:30:58;;;;;;;7.27;6.10;;;;;;;11.27;100.00;101459.03;5043788;28;20435;-73
2022/10/23 08:33:24;;;;;;;8.23;6.00;;;;;;;10.49;100.00;101337.91;5050576;28;20306;-75
2022/10/23 08:35:49;;;;;;;8.13;6.10;;;;;;;11.44;100.00;101459.66;5061236;22;20191;-71
2022/10/23 08:38:15;;;;;;;7.63;6.20;;;;;;;11.44;100.00;101455.13;5050350;28;20442;-70
2022/10/23 08:40:48;;;;;;;6.30;5.80;;;;;;;11.20;100.00;101416.00;5051029;28;20761;-70
2022/10/23 08:43:24;;;;;;;13.90;8.17;;;;;;;11.51;100.00;101453.34;5056987;28;20191;-70
2022/10/23 08:46:05;;;;;;;6.43;5.50;;;;;;;11.68;100.00;101451.22;5071430;28;20890;-70
2022/10/23 08:48:37;;;;;;;7.53;5.80;;;;;;;11.70;100.00;101435.75;5070730;28;20439;-71
2022/10/23 08:51:24;;;;;;;7.10;5.50;;;;;;;11.38;100.00;101366.41;5043791;28;20440;-70
2022/10/23 08:54:06;;;;;;;8.23;6.00;;;;;;;12.12;100.00;101450.25;5069790;28;20482;-71
2022/10/23 08:56:38;;;;;;;7.20;5.80;;;;;;;11.90;100.00;101422.53;5057913;28;20469;-71
2022/10/23 08:59:31;;;;;;;11.70;6.10;;;;;;;12.16;100.00;101448.00;5048629;28;20983;-70
2022/10/23 09:02:08;;;;;;;9.80;6.30;;;;;;;12.11;100.00;101434.28;5043884;28;20452;-70
2022/10/23 09:04:34;;;;;;;9.43;5.57;;;;;;;11.66;100.00;101353.03;5067693;28;21022;-70
2022/10/23 09:07:12;;;;;;;8.33;5.50;;;;;;;11.42;100.00;101304.03;5051905;28;20462;-69
2022/10/23 09:10:02;;;;;;;6.07;5.53;;;;;;;12.29;100.00;101449.94;5067366;28;20187;-70
2022/10/23 09:12:29;;;;;;;8.70;5.60;;;;;;;11.89;100.00;101372.50;5074022;28;20974;-70
2022/10/23 09:15:18;;;;;;;6.87;6.20;;;;;;;12.31;100.00;101445.22;5058127;28;20463;-71
2022/10/23 09:17:44;;;;;;;7.40;5.50;;;;;;;12.48;100.00;101448.44;5073697;28;20441;-70
2022/10/23 09:20:43;;;;;;;6.53;5.57;;;;;;;12.56;100.00;101445.59;5076123;28;20428;-71
2022/10/23 09:23:22;;;;;;;6.37;5.33;;;;;;;12.72;100.00;101441.75;5057140;28;20413;-71
2022/10/23 09:25:54;;;;;;;8.47;5.57;;;;;;;12.82;100.00;101439.56;5067540;28;20444;-70
2022/10/23 09:28:41;;;;;;;7.10;5.00;;;;;;;12.60;100.00;101393.84;5071025;28;20433;-71
2022/10/23 09:31:11;;;;;;;7.57;4.60;;;;;;;12.38;100.00;101358.16;5050112;28;20436;-70
2022/10/23 09:33:38;;;;;;;11.23;5.47;;;;;;;12.92;100.00;101436.47;5056698;28;20437;-70
2022/10/23 09:36:11;;;;;;;9.47;5.77;;;;;;;12.40;100.00;101348.00;5068005;28;20473;-70
2022/10/23 09:38:46;;;;;;;9.00;5.43;;;;;;;12.52;100.00;101350.97;5043384;28;20462;-70
2022/10/23 09:41:29;;;;;;;6.03;4.70;;;;;;;13.05;100.00;101398.84;5065209;28;20440;-71
2022/10/23 09:44:10;;;;;;;8.60;4.50;;;;;;;13.34;100.00;101417.41;5044638;28;20442;-71
2022/10/23 09:46:41;;;;;;;8.40;4.70;;;;;;;12.89;100.00;101348.84;5070802;28;20456;-70
2022/10/23 09:49:46;;;;;;;8.90;4.10;;;;;;;13.36;100.00;101397.50;5069212;28;20457;-70
2022/10/23 09:52:11;;;;;;;6.33;4.53;;;;;;;13.66;100.00;101417.69;4999663;28;20446;-70
2022/10/23 09:54:56;;;;;;;6.90;4.63;;;;;;;13.21;100.00;101370.72;5059389;28;20421;-71
2022/10/23 09:57:39;;;;;;;7.10;5.13;;;;;;;13.59;100.00;101405.22;5072367;28;20202;-71
2022/10/23 10:00:15;;;;;;;8.00;5.03;;;;;;;13.62;100.00;101404.81;5075194;28;20483;-72
2022/10/23 10:02:52;;;;;;;6.00;4.83;;;;;;;13.63;100.00;101395.72;5071927;28;20437;-71
2022/10/23 10:05:29;;;;;;;9.53;5.30;;;;;;;13.64;100.00;101383.88;5074594;28;20824;-71
2022/10/23 10:07:55;;;;;;;4.77;4.10;;;;;;;13.76;100.00;101361.50;5075167;28;20437;-71
2022/10/23 10:10:22;;;;;;;9.50;5.20;;;;;;;13.46;100.00;101307.16;5072644;28;20432;-72
2022/10/23 10:12:57;;;;;;;7.10;4.50;;;;;;;13.50;100.00;101305.69;5073683;28;20515;-71
2022/10/23 10:15:57;;;;;;;6.40;4.00;;;;;;;14.00;100.00;101370.00;5075016;28;21385;-71
2022/10/23 10:18:38;;;;;;;5.90;3.77;;;;;;;14.12;100.00;101370.22;5028334;28;20457;-71
2022/10/23 10:21:20;;;;;;;9.97;5.10;;;;;;;14.17;100.00;101365.00;5068177;28;20429;-71
2022/10/23 10:24:10;;;;;;;8.50;5.13;;;;;;;14.22;100.00;101355.22;5057528;28;20436;-71
2022/10/23 10:26:49;;;;;;;7.10;5.53;;;;;;;13.54;100.00;101233.38;5067509;28;20449;-71
2022/10/23 10:29:29;;;;;;;6.67;4.50;;;;;;;14.35;100.00;101345.44;5048668;28;20442;-71
2022/10/23 10:32:31;;;;;;;4.57;3.73;;;;;;;14.43;100.00;101332.56;5035091;28;21048;-71
2022/10/23 10:35:55;;;;;;;6.40;4.83;;;;;;;14.30;100.00;101299.41;5023594;28;20524;-72
2022/10/23 10:38:37;;;;;;;4.63;3.60;;;;;;;14.06;100.00;101246.94;4978663;28;20992;-72
2022/10/23 10:41:08;;;;;;;8.93;4.20;;;;;;;14.68;100.00;101332.72;5048767;28;21015;-72
2022/10/23 10:44:03;;;;;;;9.87;4.50;;;;;;;14.07;100.00;101198.19;5059958;28;20449;-72
2022/10/23 10:46:54;;;;;;;4.83;3.90;;;;;;;14.87;100.00;101325.59;5029261;28;20549;-72
2022/10/23 10:49:34;;;;;;;5.60;3.80;;;;;;;14.43;100.00;101232.69;5044483;28;20919;-71
2022/10/23 10:52:34;;;;;;;9.63;4.40;;;;;;;14.91;100.00;101288.97;5068922;28;20510;-72
2022/10/23 10:55:34;;;;;;;5.70;3.83;;;;;;;15.10;100.00;101299.88;5052298;28;20473;-73
2022/10/23 10:58:22;;;;;;;7.43;3.57;;;;;;;15.13;100.00;101304.88;5050938;28;20433;-73
2022/10/23 11:00:54;;;;;;;5.00;4.17;;;;;;;15.20;100.00;101302.13;5063915;28;20440;-73
2022/10/23 11:03:47;;;;;;;6.00;4.30;;;;;;;15.04;100.00;101239.47;5064318;28;20988;-73
2022/10/23 11:06:17;;;;;;;5.90;3.70;;;;;;;15.16;100.00;101245.00;5063922;28;20445;-74
2022/10/23 11:08:43;;;;;;;7.10;4.30;;;;;;;15.01;100.00;101193.13;5045343;28;20433;-72
2022/10/23 11:11:14;;;;;;;8.23;4.40;;;;;;;15.46;100.00;101269.47;5043553;28;20520;-73
2022/10/23 11:13:42;;;;;;;7.37;4.23;;;;;;;15.18;100.00;101218.56;5061344;28;20175;-73
2022/10/23 11:16:13;;;;;;;10.00;4.83;;;;;;;14.85;100.00;101156.69;5060948;28;20473;-73
2022/10/23 11:18:43;;;;;;;7.40;4.13;;;;;;;15.44;100.00;101251.81;5046352;28;20440;-73
2022/10/23 11:21:21;;;;;;;11.27;4.77;;;;;;;14.84;100.00;101155.03;5045605;28;20441;-74
2022/10/23 11:23:49;;;;;;;5.73;3.57;;;;;;;15.33;100.00;101239.84;5060701;28;20498;-73
2022/10/23 11:26:30;;;;;;;7.23;4.30;;;;;;;14.59;100.00;101136.13;5060588;28;21098;-72
2022/10/23 11:29:22;;;;;;;11.10;5.00;;;;;;;15.25;100.00;101205.00;5113622;27;20308;-73
2022/10/23 11:32:05;;;;;;;7.27;4.67;;;;;;;15.18;100.00;101199.66;5084066;28;20428;-72
2022/10/23 11:34:50;;;;;;;6.43;3.90;;;;;;;15.20;100.00;101194.03;5090891;28;20435;-72
2022/10/23 11:37:21;;;;;;;4.63;3.40;;;;;;;15.19;100.00;101193.22;5073807;28;20470;-72